• Join FlightAware (Why Join?)
  • Login
  • US Flag 
07:35AM EST


 

Airport Tracker/Info


-or-


 

Live Flight TrackerFlight Track Log ✈ UAL118 ✈ 10-Jul-2013 ✈ EDDF / FRA - KEWR

Flight Track Log - Related Links

Times and Time Zones

All times are in EDT time to prevent confusion due to time zone crossing. See the UAL118 flight status page for this flight to view local times or setup timezone preferences in your user account.

Time Position Orientation Groundspeed Altitude Reporting Facility
EDT Latitude Longitude Course Direction KTS MPH feet Rate Location/Type
03:06AM 50.0380 8.5600 240° Southwest 16 18  Level FlightAware
03:06AM 50.0370 8.5560 249° West 18 21  Level FlightAware
03:06AM 50.0360 8.5540 232° Southwest 17 20 60 Level FlightAware
03:08AM 50.0330 8.5400 294° West 17 20 60 Level FlightAware
03:09AM 50.1253 8.2282 294° West  Level FlightAware Approximate
03:10AM 50.0310 8.5370 224° Southwest 12 14  Level FlightAware
03:11AM 50.0380 8.5690 71° East 171 197 300 1,080 Climbing FlightAware
03:11AM 50.0450 8.5990 70° East 176 203 1,400 2,280 Climbing FlightAware
03:12AM 50.0540 8.6370 70° East 189 217 2,400 1,980 Climbing FlightAware
03:12AM 50.0630 8.6760 70° East 198 228 3,400 1,620 Climbing FlightAware
03:13AM 50.0840 8.7260 57° Northeast 224 258 4,300 1,260 Climbing FlightAware
03:13AM 50.0970 8.7330 19° North 226 260 4,600 1,320 Climbing FlightAware
03:14AM 50.1300 8.7520 20° North 244 281 5,300 1,200 Climbing FlightAware
03:14AM 50.1400 8.7590 24° Northeast 245 282 5,400 660 Climbing FlightAware
03:14AM 50.1640 8.7750 23° Northeast 259 298 5,700 1,020 Climbing FlightAware
03:15AM 50.1840 8.7880 23° Northeast 264 304 6,100 1,380 Climbing FlightAware
03:17AM 50.2760 8.6650 320° Northwest 285 328 8,800 1,500 Climbing FlightAware
03:17AM 50.3050 8.5820 299° West 286 329 9,900 1,740 Climbing FlightAware
03:18AM 50.3310 8.5080 299° West 301 346 10,900 780 Climbing FlightAware
03:19AM 50.3610 8.4230 299° West 337 388 11,000 360 Climbing FlightAware
03:19AM 50.3710 8.3860 293° West 341 392 11,300 1,920 Climbing FlightAware
03:19AM 50.3650 8.2820 265° West 358 412 12,900 1,260 Climbing FlightAware
03:20AM 50.3450 8.1810 253° West 362 417 13,100 1,080 Climbing FlightAware
03:21AM 50.3490 8.1010 275° West 356 410 14,200 2,040 Climbing FlightAware
03:21AM 50.3670 8.0580 303° West 355 409 14,900 2,100 Climbing FlightAware
03:22AM 50.4130 7.9840 314° West 363 418 16,300 2,100 Climbing FlightAware
03:22AM 50.4620 7.9090 316° Northwest 372 428 17,700 1,980 Climbing FlightAware
03:23AM 50.5180 7.8240 316° Northwest 379 436 19,100 1,800 Climbing FlightAware
03:24AM 50.5690 7.7440 315° West 385 443 20,300 1,680 Climbing FlightAware
03:24AM 50.6180 7.6680 315° West 393 452 21,400 1,740 Climbing FlightAware
03:25AM 50.6800 7.5700 315° West 398 458 22,800 1,620 Climbing FlightAware
03:26AM 50.7320 7.4870 315° West 404 465 23,800 1,380 Climbing FlightAware
03:27AM 50.7910 7.3950 315° West 411 473 24,800 1,320 Climbing FlightAware
03:27AM 50.8380 7.2990 308° West 422 486 25,700 1,320 Climbing FlightAware
03:28AM 50.8710 7.1700 292° West 429 494 26,700 1,320 Climbing FlightAware
03:29AM 50.9000 7.0530 291° West 434 499 27,600 1,200 Climbing FlightAware
03:29AM 50.9300 6.9300 291° West 438 504 28,400 1,080 Climbing FlightAware
03:30AM 50.9560 6.8200 291° West 441 507 29,100 1,140 Climbing FlightAware
03:31AM 50.9870 6.6930 291° West 446 513 29,900 1,080 Climbing FlightAware
03:31AM 51.0170 6.5690 291° West 450 518 30,600 960 Climbing FlightAware
03:32AM 51.0410 6.4640 290° West 454 522 31,100 1,200 Climbing FlightAware
03:33AM 51.0750 6.3240 291° West 448 516 32,200 1,260 Climbing FlightAware
03:33AM 51.1040 6.2000 290° West 444 511 33,000 1,140 Climbing FlightAware
03:34AM 51.1270 6.0990 290° West 441 507 33,700 780 Climbing FlightAware
03:35AM 51.1580 5.9660 290° West 442 509 34,000 120 Climbing FlightAware
03:36AM 51.2040 5.7970 294° West 436 502 34,000  Level FlightAware
03:36AM 51.2490 5.6800 302° West 435 501 34,000  Level FlightAware
03:37AM 51.2900 5.5760 302° West 436 502 34,000  Level FlightAware
03:38AM 51.3360 5.4580 302° West 439 505 34,000  Level FlightAware
03:38AM 51.3860 5.3290 302° West 440 506 34,000  Level FlightAware
03:39AM 51.4230 5.2330 302° West 442 509 34,000  Level FlightAware
03:40AM 51.4650 5.1240 302° West 442 509 34,000  Level FlightAware
03:41AM 51.5180 4.9840 301° West 442 509 34,000  Level FlightAware
03:41AM 51.5620 4.8620 300° West 445 512 34,000  Level FlightAware
03:42AM 51.5890 4.7320 289° West 448 516 34,000  Level FlightAware
03:43AM 51.6120 4.5950 285° West 448 516 34,000  Level FlightAware
03:43AM 51.6280 4.4960 285° West 448 516 34,000  Level FlightAware
03:44AM 51.6520 4.3470 285° West 448 516 34,000  Level FlightAware
03:45AM 51.6750 4.2110 285° West 448 516 34,000  Level FlightAware
03:45AM 51.6960 4.0820 285° West 449 517 34,000  Level FlightAware
03:46AM 51.7049 3.9722 285° West 456 525 34,000  Level FlightAware UK
03:46AM 51.7170 3.9470 285° West 449 517 34,000  Level FlightAware
03:47AM 51.7277 3.8164 285° West 456 525 34,000  Level FlightAware UK
03:47AM 51.7350 3.8090 285° West 451 519 34,000  Level FlightAware
03:47AM 51.7372 3.6758 285° West 456 525 34,000  Level FlightAware UK
03:47AM 51.7470 3.6640 285° West 451 519 34,000  Level FlightAware
03:48AM 51.7540 3.5670 277° West 452 520 34,000  Level FlightAware
03:48AM 51.7630 3.4540 277° West 452 520 34,000  Level FlightAware
03:49AM 51.7638 3.3158 277° West 454 522 34,000  Level FlightAware UK
03:49AM 51.7720 3.3250 277° West 452 520 34,000  Level FlightAware
03:50AM 51.7830 3.1740 277° West 452 520 34,000  Level FlightAware
03:51AM 51.7930 3.0420 277° West 452 520 34,000  Level FlightAware
03:51AM 51.8030 2.8960 276° West 452 520 34,000  Level FlightAware
03:52AM 51.8120 2.7700 277° West 452 520 34,000  Level FlightAware
03:53AM 51.8120 2.6070 270° West 459 528 34,000  Level FlightAware
03:53AM 51.8050 2.4900 265° West 460 529 34,000  Level FlightAware
03:54AM 51.7960 2.3410 264° West 461 531 34,000  Level FlightAware
03:55AM 51.7755 2.1836 264° West 452 520 34,000  Level FlightAware UK
03:55AM 51.7850 2.1870 264° West 462 532 34,000  Level FlightAware
03:55AM 51.7672 2.0603 264° West 452 520 34,000  Level FlightAware UK
03:55AM 51.7750 2.0350 264° West 463 533 34,000  Level FlightAware
03:56AM 51.7571 1.9172 264° West 452 520 34,000  Level FlightAware UK
03:56AM 51.7640 1.8910 264° West 464 534 34,000  Level FlightAware
03:57AM 51.7558 1.7731 264° West 465 535 34,000  Level FlightAware ADS-B
03:57AM 51.7461 1.6438 263° West 465 535 34,000  Level FlightAware ADS-B
03:58AM 51.7350 1.4900 263° West 465 535 34,000  Level FlightAware
03:59AM 51.7272 1.3924 263° West 466 536 34,000  Level FlightAware ADS-B
03:59AM 51.7183 1.2775 263° West 466 536 34,000  Level FlightAware ADS-B
04:00AM 51.7097 1.1677 263° West 467 537 34,000  Level FlightAware ADS-B
04:00AM 51.7012 1.0576 263° West 467 537 34,000  Level FlightAware ADS-B
04:01AM 51.6926 0.9510 263° West 467 537 34,000  Level FlightAware ADS-B
04:01AM 51.6840 0.8459 263° West 466 536 34,000  Level FlightAware ADS-B
04:02AM 51.6756 0.7431 263° West 466 536 34,000  Level FlightAware ADS-B
04:02AM 51.6668 0.6396 262° West 465 535 34,000  Level FlightAware ADS-B
04:03AM 51.6582 0.5365 262° West 464 534 34,000  Level FlightAware ADS-B
04:03AM 51.6491 0.4293 262° West 464 534 34,000  Level FlightAware ADS-B
04:04AM 51.6400 0.3245 262° West 463 533 34,000  Level FlightAware ADS-B
04:04AM 51.6309 0.2211 262° West 463 533 34,000  Level FlightAware ADS-B
04:05AM 51.6217 0.1167 262° West 462 532 34,000  Level FlightAware ADS-B
04:05AM 51.6126 0.0144 262° West 461 531 34,000  Level FlightAware ADS-B
04:06AM 51.6033 -0.0884 262° West 461 531 34,000  Level FlightAware ADS-B
04:06AM 51.5944 -0.1923 262° West 459 528 34,000  Level FlightAware ADS-B
04:07AM 51.5928 -0.2977 269° West 454 522 34,000  Level FlightAware ADS-B
04:07AM 51.5945 -0.3387 274° West 453 521 34,000  Level FlightAware ADS-B
04:08AM 51.6021 -0.4391 277° West 452 520 34,000  Level FlightAware ADS-B
04:08AM 51.6097 -0.5450 277° West 452 520 34,000  Level FlightAware ADS-B
04:09AM 51.6170 -0.6460 277° West 451 519 34,000  Level FlightAware ADS-B
04:09AM 51.6244 -0.7469 277° West 451 519 34,000  Level FlightAware ADS-B
04:10AM 51.6318 -0.8471 277° West 451 519 34,000  Level FlightAware ADS-B
04:10AM 51.6390 -0.9467 277° West 450 518 34,000  Level FlightAware ADS-B
04:11AM 51.6462 -1.0470 277° West 451 519 34,000  Level FlightAware ADS-B
04:11AM 51.6534 -1.1479 277° West 451 519 34,000  Level FlightAware ADS-B
04:12AM 51.6606 -1.2536 276° West 450 518 34,000  Level FlightAware ADS-B
04:12AM 51.6678 -1.3679 276° West 450 518 34,000  Level FlightAware ADS-B
04:13AM 51.6745 -1.4739 276° West 451 519 34,000  Level FlightAware ADS-B
04:13AM 51.6809 -1.5752 276° West 451 519 34,000  Level FlightAware ADS-B
04:14AM 51.6871 -1.6764 276° West 451 519 34,000  Level FlightAware ADS-B
04:14AM 51.6955 -1.7769 278° West 452 520 34,000  Level FlightAware ADS-B
04:15AM 51.7070 -1.8797 280° West 451 519 34,000  Level FlightAware ADS-B
04:15AM 51.7195 -1.9804 281° West 452 520 34,000  Level FlightAware ADS-B
04:16AM 51.7333 -2.0856 282° West 453 521 34,000  Level FlightAware ADS-B
04:16AM 51.7463 -2.1858 282° West 453 521 34,000  Level FlightAware ADS-B
04:17AM 51.7595 -2.2886 282° West 453 521 34,000  Level FlightAware ADS-B
04:17AM 51.7722 -2.3883 282° West 454 522 34,000  Level FlightAware ADS-B
04:18AM 51.7855 -2.4935 282° West 454 522 34,000  Level FlightAware ADS-B
04:18AM 51.7982 -2.5966 281° West 455 524 34,000  Level FlightAware ADS-B
04:19AM 51.8108 -2.7003 281° West 456 525 34,000  Level FlightAware ADS-B
04:19AM 51.8232 -2.8027 281° West 456 525 34,000  Level FlightAware ADS-B
04:20AM 51.8369 -2.9169 281° West 456 525 34,000  Level FlightAware ADS-B
04:21AM 51.8497 -3.0231 281° West 457 526 34,000  Level FlightAware ADS-B
04:21AM 51.8630 -3.1357 281° West 458 527 34,000  Level FlightAware ADS-B
04:22AM 51.8781 -3.2347 281° West 452 520 34,000  Level FlightAware UK
04:22AM 51.8780 -3.2620 281° West 458 527 34,000  Level FlightAware
04:22AM 51.8930 -3.3960 280° West 459 528 34,000  Level FlightAware
04:23AM 51.9091 -3.4979 280° West 454 522 34,000  Level FlightAware UK
04:23AM 51.9070 -3.5130 280° West 460 529 34,000  Level FlightAware
04:24AM 51.9256 -3.6397 280° West 454 522 34,000  Level FlightAware UK
04:24AM 51.9240 -3.6590 280° West 461 531 34,000  Level FlightAware
04:24AM 51.9390 -3.7970 280° West 462 532 34,000  Level FlightAware
04:25AM 51.9560 -3.9044 280° West 454 522 34,000  Level FlightAware UK
04:25AM 51.9540 -3.9230 280° West 463 533 34,000  Level FlightAware
04:25AM 51.9610 -3.9900 280° West 464 534 34,000  Level FlightAware
04:26AM 51.9789 -4.1095 280° West 454 522 34,000  Level FlightAware UK
04:26AM 51.9790 -4.1500 280° West 465 535 34,000  Level FlightAware
04:27AM 51.9995 -4.2940 280° West 452 520 34,000  Level FlightAware UK
04:27AM 51.9940 -4.2930 280° West 465 535 34,000  Level FlightAware
04:27AM 52.0100 -4.4360 280° West 466 536 34,000  Level FlightAware
04:28AM 52.0286 -4.5630 280° West 454 522 34,000  Level FlightAware UK
04:28AM 52.0270 -4.5960 280° West 467 537 34,000  Level FlightAware
04:29AM 52.0410 -4.7330 279° West 468 539 34,000  Level FlightAware
04:30AM 52.0660 -4.9156 279° West 456 525 34,000  Level FlightAware UK
04:30AM 52.0650 -4.9620 279° West 469 540 34,000  Level FlightAware
04:31AM 52.0810 -5.1170 280° West 470 541 34,000  Level FlightAware
04:31AM 52.1002 -5.2494 280° West 460 529 34,000  Level FlightAware UK
04:31AM 52.0960 -5.2570 280° West 469 540 34,000  Level FlightAware
04:32AM 52.1204 -5.3937 280° West 460 529 34,000  Level FlightAware UK
04:32AM 52.1170 -5.4110 280° West 468 539 34,000  Level FlightAware
04:33AM 52.1350 -5.5420 283° West 467 537 34,000  Level FlightAware
04:33AM 52.1510 -5.6660 282° West 465 535 34,000  Level FlightAware
04:34AM 52.1690 -5.8090 282° West 465 535 34,000  Level FlightAware
04:35AM 52.1924 -5.9485 282° West 456 525 34,000  Level FlightAware UK
04:35AM 52.1870 -5.9470 282° West 463 533 34,000  Level FlightAware
04:35AM 52.2056 -6.0506 282° West 454 522 34,000  Level FlightAware UK
04:35AM 52.2050 -6.0880 282° West 461 531 34,000  Level FlightAware
04:36AM 52.2250 -6.2440 282° West 460 529 34,000  Level FlightAware
04:37AM 52.2472 -6.3757 282° West 454 522 34,000  Level FlightAware UK
04:37AM 52.2420 -6.3800 282° West 459 528 34,000  Level FlightAware
04:38AM 52.2580 -6.5040 282° West 458 527 34,000  Level FlightAware
04:38AM 52.2750 -6.6410 282° West 457 526 34,000  Level FlightAware
04:39AM 52.2973 -6.7814 282° West 454 522 34,000  Level FlightAware UK
04:39AM 52.2920 -6.7770 282° West 456 525 34,000  Level FlightAware
04:39AM 52.3097 -6.8825 282° West 452 520 34,000  Level FlightAware UK
04:40AM 52.3090 -6.9200 282° West 455 524 34,000  Level FlightAware
04:40AM 52.3240 -7.0370 282° West 455 524 34,000  Level FlightAware
04:41AM 52.3459 -7.1856 282° West 450 518 34,000  Level FlightAware UK
04:41AM 52.3420 -7.1900 282° West 454 522 34,000  Level FlightAware
04:41AM 52.3601 -7.3060 282° West 448 516 34,000  Level FlightAware UK
04:42AM 52.3570 -7.3110 282° West 455 524 34,000  Level FlightAware
04:42AM 52.3743 -7.4273 282° West 450 518 34,000  Level FlightAware UK
04:42AM 52.3740 -7.4600 282° West 455 524 34,000  Level FlightAware
04:43AM 52.3910 -7.6010 281° West 455 524 34,000  Level FlightAware
04:44AM 52.4091 -7.7314 281° West 454 522 34,000  Level FlightAware UK
04:44AM 52.4080 -7.7460 281° West 455 524 34,000  Level FlightAware
04:44AM 52.4220 -7.8720 280° West 455 524 34,000  Level FlightAware
04:45AM 52.4390 -8.0190 281° West 455 524 34,000  Level FlightAware
04:46AM 52.4545 -8.1373 281° West 452 520 34,000  Level FlightAware UK
04:46AM 52.4540 -8.1550 281° West 456 525 34,000  Level FlightAware
04:46AM 52.4690 -8.2890 280° West 456 525 34,000  Level FlightAware
04:47AM 52.4820 -8.4030 281° West 456 525 34,000  Level FlightAware
04:48AM 52.5006 -8.5648 281° West 452 520 34,000  Level FlightAware UK
04:48AM 52.5030 -8.5970 281° West 458 527 34,000  Level FlightAware
04:49AM 52.5180 -8.7340 280° West 457 526 34,000  Level FlightAware
04:49AM 52.5280 -8.8290 280° West 457 526 34,000  Level FlightAware
04:50AM 52.5434 -8.9748 280° West 456 525 34,000  Level FlightAware UK
04:50AM 52.5430 -8.9720 280° West 457 526 34,000  Level FlightAware
04:50AM 52.5590 -9.1280 280° West 457 526 34,000  Level FlightAware
04:51AM 52.5720 -9.2490 280° West 457 526 34,000  Level FlightAware
04:52AM 52.5880 -9.4050 280° West 458 527 34,000  Level FlightAware
04:53AM 52.6030 -9.5610 279° West 456 525 34,000  Level FlightAware
04:53AM 52.6180 -9.7080 280° West 456 525 34,000  Level FlightAware
04:54AM 52.6350 -9.8810 279° West 456 525 34,000  Level FlightAware
04:55AM 52.6490 -10.0200 279° West 455 524 34,000  Level FlightAware
04:55AM 52.6620 -10.1630 279° West 456 525 34,000  Level FlightAware
04:56AM 52.6740 -10.2840 279° West 455 524 34,000  Level FlightAware
04:57AM 52.6880 -10.4380 279° West 454 522 34,000  Level FlightAware
04:58AM 52.7020 -10.5870 279° West 453 521 34,000  Level FlightAware
04:58AM 52.7140 -10.7250 278° West 450 518 34,000  Level FlightAware
04:59AM 52.7280 -10.8750 279° West 449 517 34,000  Level FlightAware
05:01AM 52.7700 -11.3740 280° West 445 512 34,000  Level FlightAware
05:02AM 52.7791 -11.3458 280° West  Level Estimated
05:02AM 52.7800 -11.4900 278° West 445 512 34,000  Level FlightAware
05:03AM 52.7940 -11.6650 278° West 443 510 34,000  Level FlightAware
05:04AM 52.8070 -11.8180 278° West 443 510 34,000  Level FlightAware
05:04AM 52.8170 -11.9490 277° West 443 510 34,000  Level FlightAware
05:05AM 52.8290 -12.1030 277° West 443 510 34,000  Level FlightAware
05:06AM 52.8380 -12.2180 277° West 443 510 34,000  Level FlightAware
05:06AM 52.8480 -12.3580 277° West 444 511 34,000  Level FlightAware
05:07AM 52.8580 -12.4880 277° West 444 511 34,000  Level FlightAware
05:08AM 52.8690 -12.6460 277° West 444 511 34,000  Level FlightAware
05:09AM 52.8830 -12.8330 277° West 34,000  Level FlightAware
05:10AM 52.8940 -12.9990 276° West 443 510 34,000  Level FlightAware
05:12AM 52.9266 -13.3581 279° West  Level Estimated
05:12AM 52.9270 -13.5010 279° West 441 507 34,000  Level FlightAware
05:13AM 52.9320 -13.6220 274° West 441 507 34,000  Level FlightAware
05:13AM 52.9380 -13.7600 274° West 441 507 34,000  Level FlightAware
05:14AM 52.9420 -13.8630 274° West 441 507 34,000  Level FlightAware
05:14AM 52.9450 -13.9320 274° West 441 507 34,000  Level FlightAware
05:16AM 52.9590 -14.2740 278° West 441 507 34,000  Level FlightAware
05:17AM 52.9767 -14.3141 278° West  Level Estimated
05:17AM 52.9650 -14.4140 274° West 441 507 34,000  Level FlightAware
05:18AM 52.9700 -14.5210 274° West 441 507 34,000  Level FlightAware
05:19AM 52.9740 -14.6270 274° West 441 507 34,000  Level FlightAware
05:19AM 52.9800 -14.7650 274° West 441 507 34,000  Level FlightAware
05:20AM 52.9850 -14.8740 274° West 441 507 34,000  Level FlightAware
05:21AM 52.9900 -15.0090 274° West 441 507 34,000  Level FlightAware
05:21AM 52.9950 -15.1130 275° West 441 507 34,000  Level FlightAware
05:24AM 53.0252 -15.5246 277° West  Level Estimated
05:25AM 53.0385 -15.7133 277° West  Level Estimated
05:26AM 53.0515 -15.9022 277° West  Level Estimated
05:27AM 53.0643 -16.0911 276° West  Level Estimated
05:28AM 53.0767 -16.2801 276° West  Level Estimated
05:29AM 53.0889 -16.4693 276° West  Level Estimated
05:30AM 53.1007 -16.6586 276° West  Level Estimated
05:31AM 53.1122 -16.8479 276° West  Level Estimated
05:32AM 53.1235 -17.0374 276° West  Level Estimated
05:33AM 53.1344 -17.2270 276° West  Level Estimated
05:34AM 53.1451 -17.4166 275° West  Level Estimated
05:35AM 53.1555 -17.6090 275° West  Level Estimated
05:36AM 53.1657 -17.8015 275° West  Level Estimated
05:37AM 53.1756 -17.9941 275° West  Level Estimated
05:38AM 53.1851 -18.1868 275° West  Level Estimated
05:39AM 53.1944 -18.3795 275° West  Level Estimated
05:40AM 53.2033 -18.5724 274° West  Level Estimated
05:41AM 53.2119 -18.7653 274° West  Level Estimated
05:42AM 53.2202 -18.9583 274° West  Level Estimated
05:43AM 53.2282 -19.1513 274° West  Level Estimated
05:44AM 53.2359 -19.3444 274° West  Level Estimated
05:45AM 53.2432 -19.5376 274° West  Level Estimated
05:46AM 53.2503 -19.7309 274° West  Level Estimated
05:46AM 54.0000 -20.0000 284° West 432 497 34,000  Level ETMS Enhanced Traffic Management System
05:47AM 53.2570 -19.9242 273° West  Level Estimated
05:48AM 53.2634 -20.1176 273° West  Level Estimated
05:49AM 53.2695 -20.3111 273° West  Level Estimated
05:50AM 53.2753 -20.5046 273° West  Level Estimated
05:51AM 53.2808 -20.6981 273° West  Level Estimated
05:52AM 53.2860 -20.8917 273° West  Level Estimated
05:53AM 54.1928 -21.3960 283° West 432 497 34,000  Level FlightAware Transoceanic
05:54AM 54.2191 -21.5965 283° West 432 497 34,000  Level FlightAware Transoceanic
05:55AM 54.2450 -21.7972 282° West 432 497 34,000  Level FlightAware Transoceanic
05:56AM 54.2705 -21.9981 282° West 432 497 34,000  Level FlightAware Transoceanic
05:57AM 54.2957 -22.1994 282° West 432 497 34,000  Level FlightAware Transoceanic
05:58AM 54.3206 -22.4008 282° West 432 497 34,000  Level FlightAware Transoceanic
05:59AM 54.3452 -22.6025 282° West 432 497 34,000  Level FlightAware Transoceanic
06:00AM 54.3694 -22.8045 282° West 432 497 34,000  Level FlightAware Transoceanic
06:01AM 54.3933 -23.0067 281° West 432 497 34,000  Level FlightAware Transoceanic
06:02AM 54.4168 -23.2091 281° West 432 497 34,000  Level FlightAware Transoceanic
06:03AM 54.4400 -23.4117 281° West 432 497 34,000  Level FlightAware Transoceanic
06:04AM 54.4629 -23.6146 281° West 432 497 34,000  Level FlightAware Transoceanic
06:05AM 54.4854 -23.8177 281° West 432 497 34,000  Level FlightAware Transoceanic
06:06AM 54.5076 -24.0210 281° West 432 497 34,000  Level FlightAware Transoceanic
06:07AM 54.5294 -24.2246 280° West 432 497 34,000  Level FlightAware Transoceanic
06:08AM 54.5509 -24.4284 280° West 432 497 34,000  Level FlightAware Transoceanic
06:09AM 54.5721 -24.6323 280° West 432 497 34,000  Level FlightAware Transoceanic
06:10AM 54.5929 -24.8365 280° West 432 497 34,000  Level FlightAware Transoceanic
06:11AM 54.6134 -25.0409 280° West 432 497 34,000  Level FlightAware Transoceanic
06:12AM 54.6335 -25.2455 280° West 432 497 34,000  Level FlightAware Transoceanic
06:13AM 54.6533 -25.4503 279° West 432 497 34,000  Level FlightAware Transoceanic
06:14AM 54.6727 -25.6553 279° West 432 497 34,000  Level FlightAware Transoceanic
06:15AM 54.6918 -25.8605 279° West 432 497 34,000  Level FlightAware Transoceanic
06:16AM 54.7105 -26.0658 279° West 432 497 34,000  Level FlightAware Transoceanic
06:17AM 54.7289 -26.2714 279° West 432 497 34,000  Level FlightAware Transoceanic
06:18AM 54.7470 -26.4772 279° West 432 497 34,000  Level FlightAware Transoceanic
06:19AM 54.7647 -26.6831 278° West 432 497 34,000  Level FlightAware Transoceanic
06:20AM 54.7820 -26.8892 278° West 432 497 34,000  Level FlightAware Transoceanic
06:21AM 54.7990 -27.0955 278° West 432 497 34,000  Level FlightAware Transoceanic
06:22AM 54.8157 -27.3020 278° West 432 497 34,000  Level FlightAware Transoceanic
06:23AM 54.8320 -27.5086 278° West 432 497 34,000  Level FlightAware Transoceanic
06:24AM 54.8479 -27.7154 278° West 432 497 34,000  Level FlightAware Transoceanic
06:25AM 54.8635 -27.9223 277° West 432 497 34,000  Level FlightAware Transoceanic
06:26AM 54.8787 -28.1294 277° West 432 497 34,000  Level FlightAware Transoceanic
06:27AM 54.8936 -28.3367 277° West 432 497 34,000  Level FlightAware Transoceanic
06:28AM 54.9082 -28.5441 277° West 432 497 34,000  Level FlightAware Transoceanic
06:29AM 54.9224 -28.7517 277° West 432 497 34,000  Level FlightAware Transoceanic
06:30AM 54.9362 -28.9594 277° West 432 497 34,000  Level FlightAware Transoceanic
06:31AM 54.9496 -29.1672 276° West 432 497 34,000  Level FlightAware Transoceanic
06:32AM 54.9628 -29.3752 276° West 432 497 34,000  Level FlightAware Transoceanic
06:33AM 54.9755 -29.5834 276° West 432 497 34,000  Level FlightAware Transoceanic
06:34AM 54.9879 -29.7916 276° West 432 497 34,000  Level FlightAware Transoceanic
06:35AM 54.9996 -29.9926 276° West  Level FlightAware Approximate
06:36AM 55.0108 -30.1936 276° West  Level FlightAware Approximate
06:37AM 55.0075 -30.1866 274° West  Level FlightAware Approximate
06:38AM 55.0153 -30.3882 274° West  Level FlightAware Approximate
06:39AM 55.0227 -30.5899 274° West  Level FlightAware Approximate
06:40AM 55.0299 -30.7916 274° West  Level FlightAware Approximate
06:41AM 55.0366 -30.9934 273° West  Level FlightAware Approximate
06:42AM 55.0431 -31.1953 273° West  Level FlightAware Approximate
06:43AM 55.0492 -31.3972 273° West  Level FlightAware Approximate
06:44AM 55.0550 -31.5992 273° West  Level FlightAware Approximate
06:45AM 55.0604 -31.8013 273° West  Level FlightAware Approximate
06:46AM 55.0656 -32.0034 273° West  Level FlightAware Approximate
06:47AM 55.0703 -32.2056 272° West  Level FlightAware Approximate
06:48AM 55.0748 -32.4078 272° West  Level FlightAware Approximate
06:49AM 55.0789 -32.6100 272° West  Level FlightAware Approximate
06:50AM 55.0826 -32.8123 272° West  Level FlightAware Approximate
06:51AM 55.0861 -33.0146 272° West  Level FlightAware Approximate
06:52AM 55.0892 -33.2170 272° West  Level FlightAware Approximate
06:53AM 55.0920 -33.4194 271° West  Level FlightAware Approximate
06:54AM 55.0944 -33.6218 271° West  Level FlightAware Approximate
06:55AM 55.0965 -33.8242 271° West  Level FlightAware Approximate
06:56AM 55.0983 -34.0267 271° West  Level FlightAware Approximate
06:57AM 55.0997 -34.2292 271° West  Level FlightAware Approximate
06:58AM 55.1008 -34.4317 271° West  Level FlightAware Approximate
06:59AM 55.1016 -34.6342 270° West  Level FlightAware Approximate
07:00AM 55.1020 -34.8367 270° West  Level FlightAware Approximate
07:01AM 55.1022 -35.0392 270° West  Level FlightAware Approximate
07:02AM 55.1019 -35.2417 270° West  Level FlightAware Approximate
07:03AM 55.1014 -35.4442 270° West  Level FlightAware Approximate
07:04AM 55.1005 -35.6467 270° West  Level FlightAware Approximate
07:05AM 55.0993 -35.8492 269° West  Level FlightAware Approximate
07:06AM 55.0977 -36.0517 269° West  Level FlightAware Approximate
07:07AM 55.0958 -36.2542 269° West  Level FlightAware Approximate
07:08AM 55.0936 -36.4566 269° West  Level FlightAware Approximate
07:09AM 55.0910 -36.6590 269° West  Level FlightAware Approximate
07:10AM 55.0881 -36.8614 269° West  Level FlightAware Approximate
07:11AM 55.0849 -37.0637 268° West  Level FlightAware Approximate
07:12AM 55.0813 -37.2660 268° West  Level FlightAware Approximate
07:13AM 55.0774 -37.4683 268° West  Level FlightAware Approximate
07:14AM 55.0732 -37.6706 268° West  Level FlightAware Approximate
07:15AM 55.0686 -37.8727 268° West  Level FlightAware Approximate
07:16AM 55.0637 -38.0749 268° West  Level FlightAware Approximate
07:17AM 55.0584 -38.2770 267° West  Level FlightAware Approximate
07:18AM 55.0528 -38.4790 267° West  Level FlightAware Approximate
07:19AM 55.0469 -38.6810 267° West  Level FlightAware Approximate
07:20AM 55.0407 -38.8829 267° West  Level FlightAware Approximate
07:21AM 55.0341 -39.0848 267° West  Level FlightAware Approximate
07:22AM 55.0272 -39.2866 267° West  Level FlightAware Approximate
07:23AM 55.0199 -39.4883 266° West  Level FlightAware Approximate
07:24AM 55.0123 -39.6899 266° West  Level FlightAware Approximate
07:25AM 55.0044 -39.8915 266° West  Level FlightAware Approximate
07:26AM 54.9860 -40.0900 255° West  Level FlightAware Approximate
07:27AM 54.9556 -40.2847 255° West  Level FlightAware Approximate
07:28AM 54.9248 -40.4791 255° West  Level FlightAware Approximate
07:29AM 54.8937 -40.6733 255° West  Level FlightAware Approximate
07:30AM 54.8623 -40.8671 254° West  Level FlightAware Approximate
07:31AM 54.8306 -41.0607 254° West  Level FlightAware Approximate
07:32AM 54.7986 -41.2539 254° West  Level FlightAware Approximate
07:33AM 54.7663 -41.4468 254° West  Level FlightAware Approximate
07:34AM 54.7337 -41.6395 254° West  Level FlightAware Approximate
07:35AM 54.7007 -41.8318 254° West  Level FlightAware Approximate
07:36AM 54.6675 -42.0238 253° West  Level FlightAware Approximate
07:37AM 54.6340 -42.2155 253° West  Level FlightAware Approximate
07:38AM 54.6002 -42.4068 253° West  Level FlightAware Approximate
07:39AM 54.5660 -42.5979 253° West  Level FlightAware Approximate
07:40AM 54.5316 -42.7886 253° West  Level FlightAware Approximate
07:41AM 54.4968 -42.9790 253° West  Level FlightAware Approximate
07:42AM 54.4618 -43.1691 252° West  Level FlightAware Approximate
07:43AM 54.4265 -43.3588 252° West  Level FlightAware Approximate
07:44AM 54.3908 -43.5482 252° West  Level FlightAware Approximate
07:45AM 54.3549 -43.7373 252° West  Level FlightAware Approximate
07:46AM 54.3192 -43.9264 252° West  Level FlightAware Approximate
07:47AM 54.2839 -44.1155 252° West  Level FlightAware Approximate
07:48AM 54.2483 -44.3042 252° West  Level FlightAware Approximate
07:49AM 54.2124 -44.4927 252° West  Level FlightAware Approximate
07:50AM 54.1762 -44.6808 252° West  Level FlightAware Approximate
07:51AM 54.1397 -44.8686 252° West  Level FlightAware Approximate
07:52AM 54.1030 -45.0561 252° West  Level FlightAware Approximate
07:53AM 54.0659 -45.2432 251° West  Level FlightAware Approximate
07:54AM 54.0285 -45.4300 251° West  Level FlightAware Approximate
07:55AM 53.9909 -45.6165 251° West  Level FlightAware Approximate
07:56AM 53.9530 -45.8026 251° West  Level FlightAware Approximate
07:57AM 53.9147 -45.9884 251° West  Level FlightAware Approximate
07:58AM 53.8763 -46.1738 251° West  Level FlightAware Approximate
07:59AM 53.8375 -46.3589 251° West  Level FlightAware Approximate
08:00AM 53.7984 -46.5437 250° West  Level FlightAware Approximate
08:01AM 53.7590 -46.7281 250° West  Level FlightAware Approximate
08:02AM 53.7194 -46.9122 250° West  Level FlightAware Approximate
08:03AM 53.6795 -47.0959 250° West  Level FlightAware Approximate
08:04AM 53.6393 -47.2793 250° West  Level FlightAware Approximate
08:05AM 53.5988 -47.4623 250° West  Level FlightAware Approximate
08:06AM 53.5580 -47.6449 249° West  Level FlightAware Approximate
08:07AM 53.5177 -47.8243 249° West  Level FlightAware Approximate
08:08AM 53.4770 -48.0033 249° West  Level FlightAware Approximate
08:09AM 53.4361 -48.1819 249° West  Level FlightAware Approximate
08:10AM 53.3950 -48.3602 249° West  Level FlightAware Approximate
08:11AM 53.3535 -48.5382 249° West  Level FlightAware Approximate
08:12AM 53.3119 -48.7158 249° West  Level FlightAware Approximate
08:13AM 53.2699 -48.8931 248° West  Level FlightAware Approximate
08:14AM 53.2277 -49.0700 248° West  Level FlightAware Approximate
08:15AM 53.1852 -49.2466 248° West  Level FlightAware Approximate
08:16AM 53.1424 -49.4228 248° West  Level FlightAware Approximate
08:17AM 53.0994 -49.5986 248° West  Level FlightAware Approximate
08:18AM 53.0562 -49.7741 248° West  Level FlightAware Approximate
08:19AM 53.0127 -49.9493 248° West  Level FlightAware Approximate
08:20AM 52.9704 -50.1251 249° West  Level FlightAware Approximate
08:21AM 52.9286 -50.3011 249° West  Level FlightAware Approximate
08:22AM 52.8865 -50.4767 248° West  Level FlightAware Approximate
08:23AM 52.8441 -50.6520 248° West  Level FlightAware Approximate
08:24AM 52.8015 -50.8269 248° West  Level FlightAware Approximate
08:25AM 52.7587 -51.0014 248° West  Level FlightAware Approximate
08:26AM 52.7155 -51.1757 248° West  Level FlightAware Approximate
08:27AM 52.6721 -51.3495 248° West  Level FlightAware Approximate
08:27AM 52.9000 -50.4500 247° West 350 403 35,000  Level Gander Center
08:28AM 52.6285 -51.5231 248° West  Level FlightAware Approximate
08:28AM 52.8667 -50.6167 252° West 420 483 35,000  Level Gander Center
08:29AM 52.5846 -51.6963 247° West  Level FlightAware Approximate
08:29AM 52.8167 -50.8333 249° West 430 495 35,000  Level Gander Center
08:30AM 52.5405 -51.8691 247° West  Level FlightAware Approximate
08:30AM 52.7833 -51.0000 252° West 430 495 35,000  Level Gander Center
08:31AM 52.4961 -52.0416 247° West  Level FlightAware Approximate
08:31AM 52.7500 -51.1833 253° West 420 483 35,000  Level Gander Center
08:32AM 52.4514 -52.2137 247° West  Level FlightAware Approximate
08:32AM 52.7000 -51.3500 244° Southwest 420 483 35,000  Level Gander Center
08:33AM 52.6667 -51.5500 255° West 430 495 35,000  Level Gander Center
08:34AM 52.6167 -51.7333 246° West 430 495 35,000  Level Gander Center
08:35AM 52.6000 -51.9000 261° West 420 483 35,000  Level Gander Center
08:36AM 52.5333 -52.0833 239° Southwest 420 483 35,000  Level Gander Center
08:37AM 52.5000 -52.2500 252° West 420 483 35,000  Level Gander Center
08:38AM 52.4500 -52.4667 249° West 430 495 35,000  Level Gander Center
08:39AM 52.4167 -52.6333 252° West 430 495 35,000  Level Gander Center
08:40AM 52.3833 -52.8000 252° West 420 483 35,000  Level Gander Center
08:41AM 52.3167 -52.9833 239° Southwest 420 483 35,000  Level Gander Center
08:42AM 52.2833 -53.1500 252° West 430 495 35,000  Level Gander Center
08:43AM 52.2500 -53.3500 255° West 420 483 35,000  Level Gander Center
08:44AM 52.1667 -53.5000 228° Southwest 430 495 35,000  Level Gander Center
08:45AM 52.1167 -53.6833 246° West 430 495 35,000  Level Gander Center
08:46AM 52.0667 -53.8500 244° Southwest 430 495 35,100 480 Climbing Gander Center
08:47AM 51.9833 -54.0167 231° Southwest 430 495 36,000 420 Climbing Gander Center
08:48AM 51.9333 -54.1667 242° Southwest 430 495 36,000  Level Gander Center
08:49AM 51.8667 -54.3500 240° Southwest 430 495 36,000  Level Gander Center
08:50AM 51.8167 -54.5167 244° Southwest 430 495 36,000  Level Gander Center
08:51AM 51.7500 -54.6500 231° Southwest 430 495 36,000  Level Gander Center
08:52AM 51.6833 -54.8333 240° Southwest 440 506 36,000  Level Gander Center
08:53AM 51.6167 -55.0000 237° Southwest 430 495 36,000  Level Gander Center
08:54AM 51.5500 -55.1667 237° Southwest 430 495 36,000  Level Gander Center
08:55AM 51.4833 -55.3500 240° Southwest 440 506 36,000  Level Gander Center
08:56AM 51.4333 -55.5167 244° Southwest 440 506 36,000  Level Gander Center
08:57AM 51.3667 -55.6500 231° Southwest 440 506 36,000  Level Gander Center
08:58AM 51.3000 -55.8167 237° Southwest 440 506 36,000  Level Gander Center
08:59AM 51.2333 -55.9833 237° Southwest 440 506 36,000  Level Gander Center
09:00AM 51.1667 -56.1667 240° Southwest 450 518 36,000  Level Gander Center
09:01AM 51.1000 -56.3333 238° Southwest 440 506 36,000  Level Gander Center
09:02AM 51.0333 -56.5000 238° Southwest 440 506 36,000  Level Gander Center
09:03AM 50.9667 -56.6667 238° Southwest 450 518 36,000  Level Gander Center
09:04AM 50.8833 -56.8333 232° Southwest 450 518 36,000  Level Gander Center
09:10AM 50.4910 -57.8660 232° Southwest 462 532 36,000  Level FlightAware
09:10AM 50.4430 -57.9790 236° Southwest 464 534 36,000  Level FlightAware
09:11AM 50.3990 -58.0800 236° Southwest 464 534 36,000  Level FlightAware
09:12AM 50.3530 -58.1880 236° Southwest 463 533 36,000  Level FlightAware
09:13AM 50.2890 -58.3360 236° Southwest 463 533 36,000  Level FlightAware
09:13AM 50.2330 -58.4650 236° Southwest 464 534 36,000  Level FlightAware
09:14AM 50.1960 -58.5490 235° Southwest 463 533 36,000  Level FlightAware
09:16AM 50.0470 -58.8840 235° Southwest 464 534 36,000  Level FlightAware
09:17AM 50.0090 -58.9670 235° Southwest 464 534 36,000  Level FlightAware
09:18AM 49.9590 -59.0790 235° Southwest 464 534 36,000  Level FlightAware
09:18AM 49.9210 -59.1630 235° Southwest 464 534 36,000  Level FlightAware
09:19AM 49.8700 -59.2760 235° Southwest 464 534 36,000  Level FlightAware
09:20AM 49.8320 -59.3600 235° Southwest 464 534 36,000  Level FlightAware
09:20AM 49.7820 -59.4710 235° Southwest 464 534 36,000 1,080 Level FlightAware
09:21AM 49.6900 -59.6990 238° Southwest 421 484 38,000 1,200 Climbing FlightAware
09:22AM 49.6540 -59.8100 243° Southwest 419 482 38,000  Level FlightAware
09:23AM 49.6160 -59.9200 242° Southwest 419 482 38,000  Level FlightAware
09:23AM 49.5740 -60.0390 241° Southwest 422 486 38,000  Level FlightAware
09:24AM 49.5420 -60.1280 241° Southwest 423 487 38,000  Level FlightAware
09:25AM 49.5030 -60.2380 241° Southwest 423 487 38,000  Level FlightAware
09:26AM 49.4720 -60.3230 241° Southwest 423 487 38,000  Level FlightAware
09:26AM 49.4450 -60.3990 241° Southwest 423 487 38,000  Level FlightAware
09:27AM 49.4130 -60.4860 241° Southwest 423 487 38,000  Level FlightAware
09:28AM 49.3750 -60.5910 241° Southwest 423 487 38,000  Level FlightAware
09:28AM 49.3460 -60.6720 241° Southwest 423 487 38,000  Level FlightAware
09:29AM 49.3170 -60.7520 241° Southwest 423 487 38,000  Level FlightAware
09:30AM 49.2780 -60.8590 241° Southwest 423 487 38,000  Level FlightAware
09:30AM 49.2490 -60.9400 241° Southwest 423 487 38,000  Level FlightAware
09:31AM 49.2100 -61.0490 241° Southwest 423 487 38,000  Level FlightAware
09:32AM 49.1810 -61.1290 241° Southwest 423 487 38,000  Level FlightAware
09:32AM 49.1410 -61.2380 241° Southwest 423 487 38,000  Level FlightAware
09:33AM 49.1020 -61.3470 241° Southwest 423 487 38,000  Level FlightAware
09:34AM 48.9500 -61.6333 241° Southwest 430 495 38,000  Level Gander Center
09:35AM 48.8833 -61.7833 236° Southwest 430 495 38,000  Level Gander Center
09:36AM 48.8167 -61.9500 239° Southwest 430 495 38,000  Level Gander Center
09:37AM 48.7667 -62.1000 243° Southwest 430 495 38,000  Level Gander Center
09:38AM 48.7167 -62.2500 243° Southwest 430 495 38,000  Level Gander Center
09:39AM 48.6500 -62.4167 239° Southwest 440 506 38,000  Level Gander Center
09:40AM 48.5667 -62.5667 230° Southwest 430 495 38,000  Level Gander Center
09:41AM 48.5000 -62.7167 236° Southwest 430 495 38,000  Level Gander Center
09:42AM 48.4500 -62.9000 248° West 440 506 38,000  Level Gander Center
09:43AM 48.3833 -63.0500 236° Southwest 440 506 38,000  Level Gander Center
09:44AM 48.3333 -63.2000 243° Southwest 430 495 38,000  Level Gander Center
09:45AM 48.2667 -63.3667 239° Southwest 430 495 38,000  Level Moncton Center
09:45AM 48.2667 -63.3667 239° Southwest 420 483 38,000  Level Gander Center
09:46AM 48.2000 -63.5167 236° Southwest 430 495 38,000  Level Moncton Center
09:47AM 48.1333 -63.6667 236° Southwest 430 495 38,000  Level Moncton Center
09:48AM 48.0667 -63.8167 236° Southwest 430 495 38,000  Level Moncton Center
09:49AM 48.0167 -63.9667 244° Southwest 430 495 38,000  Level Moncton Center
09:50AM 47.9500 -64.1167 236° Southwest 430 495 38,000  Level Moncton Center
09:51AM 47.8833 -64.2667 237° Southwest 430 495 38,000  Level Moncton Center
09:52AM 47.8167 -64.4167 237° Southwest 430 495 38,000  Level Moncton Center
09:53AM 47.7500 -64.5667 237° Southwest 430 495 38,000  Level Moncton Center
09:54AM 47.6833 -64.7167 237° Southwest 430 495 38,000  Level Moncton Center
09:55AM 47.6333 -64.8667 244° Southwest 430 495 38,000  Level Moncton Center
09:56AM 47.5667 -65.0167 237° Southwest 430 495 38,000  Level Moncton Center
09:57AM 47.5000 -65.1667 237° Southwest 430 495 38,000  Level Moncton Center
09:58AM 47.4333 -65.3333 239° Southwest 430 495 38,000  Level Moncton Center
09:59AM 47.3667 -65.4833 237° Southwest 430 495 38,000  Level Gander Center
10:00AM 47.3000 -65.6167 234° Southwest 430 495 38,000  Level Gander Center
10:01AM 47.2333 -65.7667 237° Southwest 430 495 38,000  Level Gander Center
10:02AM 47.1667 -65.9333 240° Southwest 430 495 38,000  Level Gander Center
10:03AM 47.1000 -66.0667 234° Southwest 430 495 38,000  Level Gander Center
10:04AM 47.0333 -66.2167 237° Southwest 440 506 38,000  Level Gander Center
10:05AM 46.9917 -66.3447 245° Southwest 443 510 38,000  Level Boston Center
10:06AM 46.9242 -66.4919 236° Southwest 437 503 38,000  Level Boston Center
10:07AM 46.8567 -66.6389 236° Southwest 444 511 38,000  Level Boston Center
10:08AM 46.7886 -66.7825 235° Southwest 444 511 38,000  Level Boston Center
10:13AM 46.4050 -67.5930 235° Southwest 437 503 38,000  Level FlightAware
10:14AM 46.3630 -67.6800 235° Southwest 437 503 38,000  Level FlightAware
10:16AM 46.2180 -67.9830 235° Southwest 437 503 38,000 -300 Level FlightAware
10:17AM 46.1910 -68.1000 252° West 424 488 37,200 -720 Descending FlightAware
10:17AM 46.1890 -68.2130 269° West 422 486 37,000 -120 Descending FlightAware
10:18AM 46.1870 -68.3840 269° West 421 484 37,000  Level FlightAware
10:19AM 46.1840 -68.4970 268° West 419 482 37,000  Level FlightAware
10:20AM 46.1820 -68.6070 269° West 417 480 37,000  Level FlightAware
10:21AM 46.1800 -68.7270 269° West 415 478 37,000  Level FlightAware
10:21AM 46.1650 -68.8510 260° West 420 483 37,000  Level FlightAware
10:22AM 46.1220 -68.9440 236° Southwest 429 494 37,000  Level FlightAware
10:23AM 46.0470 -69.0740 230° Southwest 426 490 37,000  Level FlightAware
10:24AM 45.9730 -69.2020 230° Southwest 426 490 37,000  Level FlightAware
10:25AM 45.9190 -69.2960 230° Southwest 426 490 37,000  Level FlightAware
10:25AM 45.8720 -69.3770 230° Southwest 427 491 37,000  Level FlightAware
10:26AM 45.8220 -69.4630 230° Southwest 428 493 37,000  Level FlightAware
10:27AM 45.7690 -69.5560 231° Southwest 430 495 37,000  Level FlightAware
10:28AM 45.6920 -69.6870 230° Southwest 431 496 37,000  Level FlightAware
10:28AM 45.6390 -69.7770 230° Southwest 433 498 37,000  Level FlightAware
10:29AM 45.5910 -69.8590 230° Southwest 435 501 37,000 120 Level FlightAware
10:34AM 45.2010 -70.5130 230° Southwest 428 493 38,000 120 Climbing FlightAware
10:35AM 45.1310 -70.6290 229° Southwest 428 493 38,000  Level FlightAware
10:36AM 45.0630 -70.7420 230° Southwest 423 487 38,000  Level FlightAware
10:37AM 44.9990 -70.8460 229° Southwest 424 488 38,000  Level FlightAware
10:37AM 44.9470 -70.9310 229° Southwest 425 489 38,000  Level FlightAware
10:38AM 44.8950 -71.0170 230° Southwest 425 489 38,000  Level FlightAware
10:39AM 44.8370 -71.1110 229° Southwest 425 489 38,000  Level FlightAware
10:39AM 44.7850 -71.1950 229° Southwest 425 489 38,000  Level FlightAware
10:40AM 44.7260 -71.2910 229° Southwest 425 489 38,000  Level FlightAware
10:41AM 44.6730 -71.3760 229° Southwest 426 490 38,000  Level FlightAware
10:41AM 44.6210 -71.4590 229° Southwest 427 491 38,000  Level FlightAware
10:42AM 44.5710 -71.5480 232° Southwest 425 489 38,000 -300 Level FlightAware
10:43AM 44.5500 -71.6490 254° West 413 475 37,600 -1,140 Descending FlightAware
10:43AM 44.5520 -71.7570 272° West 417 480 36,500 -1,200 Descending FlightAware
10:44AM 44.5580 -71.8670 274° West 416 479 36,000 -120 Descending FlightAware
10:49AM 44.2520 -72.4650 235° Southwest 436 502 36,000  Level FlightAware
10:50AM 44.1630 -72.5670 219° Southwest 438 504 36,000  Level FlightAware
10:51AM 44.0800 -72.6620 219° Southwest 437 503 36,000  Level FlightAware
10:51AM 44.0160 -72.7340 219° Southwest 438 504 36,000  Level FlightAware
10:52AM 43.9630 -72.7930 219° Southwest 437 503 36,000  Level FlightAware
10:52AM 43.9070 -72.8560 219° Southwest 437 503 36,000  Level FlightAware
10:53AM 43.8300 -72.9430 219° Southwest 438 504 36,000  Level FlightAware
10:54AM 43.7670 -73.0130 219° Southwest 438 504 36,000 -180 Level FlightAware
10:55AM 43.6950 -73.0930 219° Southwest 439 505 35,800 -1,320 Descending FlightAware
10:55AM 43.6320 -73.1630 219° Southwest 436 502 34,200 -2,580 Descending FlightAware
10:56AM 43.5680 -73.2340 219° Southwest 442 509 32,400 -2,460 Descending FlightAware
10:57AM 43.5100 -73.2980 219° Southwest 438 504 30,900 -1,740 Descending FlightAware
10:58AM 43.4050 -73.4120 218° Southwest 434 499 29,400 -2,220 Descending FlightAware
10:58AM 43.3410 -73.4830 219° Southwest 414 476 27,100 -1,500 Descending FlightAware
11:00AM 43.2130 -73.6210 218° Southwest 415 478 26,100 -1,500 Descending FlightAware
11:01AM 43.1660 -73.6620 212° Southwest 415 478 23,800 -1,620 Descending FlightAware
11:02AM 43.1040 -73.7280 218° Southwest 415 478 23,800  Level FlightAware
11:03AM 43.0110 -73.8270 218° Southwest 415 478 23,800  Level FlightAware
11:03AM 42.9650 -73.8770 219° Southwest 415 478 23,800  Level FlightAware
11:04AM 42.9030 -73.9430 218° Southwest 415 478 23,800 -3,480 Level FlightAware
11:06AM 42.6564 -73.8489 218° Southwest 357 411 16,000 -3,180 Descending Boston Center
11:07AM 42.5600 -73.8861 196° South 357 411 16,100  Climbing Boston Center
11:08AM 42.4594 -73.9317 198° South 362 417 16,100  Level Boston Center
11:09AM 42.3733 -73.9689 198° South 362 417 16,100 -60 Level Boston Center
11:10AM 42.2706 -74.0142 198° South 363 418 16,000 -300 Descending Boston Center
11:16AM 41.7480 -74.2870 198° South 353 406 14,400 -480 Descending FlightAware
11:16AM 41.6600 -74.3280 199° South 335 386 12,900 -1,140 Descending FlightAware
11:17AM 41.6080 -74.3520 199° South 335 386 12,900  Level FlightAware
11:18AM 41.5500 -74.3780 199° South 335 386 12,900 -900 Level FlightAware
11:24AM 41.1410 -74.5170 194° South 228 262 7,000 -960 Descending FlightAware
11:24AM 41.0884 -74.5357 195° South 231 266 6,500 -780 Descending FlightAware ADS-B
11:25AM 41.0726 -74.5411 194° South 230 265 6,200 -1,200 Descending FlightAware ADS-B
11:25AM 41.0626 -74.5439 192° South 231 266 6,000 -780 Descending FlightAware ADS-B
11:25AM 41.0557 -74.5443 183° South 232 267 6,000  Level FlightAware ADS-B
11:25AM 41.0284 -74.5160 142° Southeast 240 276 6,000  Level FlightAware ADS-B
11:26AM 41.0269 -74.4959 96° East 232 267 6,000  Level FlightAware ADS-B
11:26AM 41.0281 -74.4885 78° East 257 296 6,000  Level FlightAware ADS-B
11:26AM 41.0293 -74.4828 74° East 258 297 6,000  Level FlightAware ADS-B
11:26AM 41.0360 -74.4603 68° East 249 287 6,000  Level FlightAware ADS-B
11:26AM 41.0420 -74.4406 68° East 235 270 6,000  Level FlightAware ADS-B
11:26AM 41.0436 -74.4356 67° East 235 270 6,000  Level FlightAware ADS-B
11:27AM 41.0504 -74.4130 68° East 213 245 6,000 -360 Level FlightAware ADS-B
11:27AM 41.0561 -74.3941 68° East 210 242 5,800 -780 Descending FlightAware ADS-B
11:27AM 41.0616 -74.3757 68° East 210 242 5,600 -600 Descending FlightAware ADS-B
11:28AM 41.0717 -74.3292 74° East 211 243 5,300 -420 Descending FlightAware ADS-B
11:28AM 41.0688 -74.3165 107° East 207 238 5,300  Level FlightAware ADS-B
11:28AM 41.0602 -74.2883 112° Southeast 204 235 5,300 -180 Level FlightAware ADS-B
11:29AM 41.0549 -74.2700 111° Southeast 202 232 5,200 -900 Descending FlightAware ADS-B
11:30AM 41.0334 -74.1939 111° Southeast 196 226 4,100 -660 Descending FlightAware ADS-B
11:31AM 41.0202 -74.1457 110° East 193 222 4,000 -120 Descending FlightAware ADS-B
11:31AM 41.0158 -74.1302 111° Southeast 192 221 4,000  Level FlightAware ADS-B
11:31AM 41.0144 -74.1265 117° Southeast 191 220 4,000  Level FlightAware ADS-B
11:31AM 41.0120 -74.1213 121° Southeast 186 214 4,000  Level FlightAware ADS-B
11:31AM 40.9898 -74.1071 154° Southeast 172 198 4,000  Level FlightAware ADS-B
11:32AM 40.9785 -74.1017 160° South 172 198 4,000  Level FlightAware ADS-B
11:32AM 40.9672 -74.0966 161° South 175 201 4,000  Level FlightAware ADS-B
11:32AM 40.9503 -74.0887 161° South 178 205 4,000 -480 Level FlightAware ADS-B
11:33AM 40.9361 -74.0818 160° South 170 196 3,700 -840 Descending FlightAware ADS-B
11:33AM 40.9229 -74.0755 160° South 173 199 3,500 -840 Descending FlightAware ADS-B
11:33AM 40.9184 -74.0734 161° South 176 203 3,400 -600 Descending FlightAware ADS-B
11:33AM 40.9151 -74.0722 165° South 176 203 3,400 -780 Level FlightAware ADS-B
11:33AM 40.9122 -74.0714 168° South 174 200 3,300 -960 Descending FlightAware ADS-B
11:33AM 40.8999 -74.0690 172° South 175 201 3,100 -600 Descending FlightAware ADS-B
11:34AM 40.8879 -74.0667 172° South 174 200 3,000 -240 Descending FlightAware ADS-B
11:34AM 40.8734 -74.0640 172° South 164 189 3,000  Level FlightAware ADS-B
11:34AM 40.8620 -74.0629 176° South 162 186 3,000  Level FlightAware ADS-B
11:34AM 40.8590 -74.0637 191° South 155 178 3,000  Level FlightAware ADS-B
11:34AM 40.8532 -74.0664 199° South 153 176 3,000  Level FlightAware ADS-B
11:35AM 40.8394 -74.0751 205° Southwest 153 176 3,000 -180 Level FlightAware ADS-B
11:35AM 40.8247 -74.0846 206° Southwest 147 169 2,900 -480 Descending FlightAware ADS-B
11:35AM 40.8151 -74.0906 205° Southwest 158 182 2,700 -900 Descending FlightAware ADS-B
11:36AM 40.8063 -74.0961 205° Southwest 165 190 2,500 -960 Descending FlightAware ADS-B
11:36AM 40.7878 -74.1079 206° Southwest 168 193 2,100 -780 Descending FlightAware ADS-B
11:36AM 40.7792 -74.1134 206° Southwest 169 194 2,000 -840 Descending FlightAware ADS-B
11:37AM 40.7673 -74.1208 205° Southwest 169 194 1,700 -1,020 Descending FlightAware ADS-B
11:37AM 40.7452 -74.1349 206° Southwest 162 186 1,200 -900 Descending FlightAware ADS-B
11:37AM 40.7353 -74.1410 205° Southwest 148 170 1,000 -660 Descending FlightAware ADS-B
11:39AM 40.6889 -74.1706 206° Southwest 137 158 100 -660 Descending FlightAware ADS-B